Weather History for Thermopolis, WY

Change the Weather History Date:

Saturday, September 7, 2013

  Actual Average (KWRL) Record (KWRL)
Temperature  
Mean Temperature 66 °F 63 °F  
Max Temperature 78 °F 79 °F 99 °F (1998)
Min Temperature 55 °F 46 °F 34 °F (2010)
Degree Days  
Heating Degree Days 0 4  
Month to date heating degree days 22  
Since 1 July heating degree days 58  
Cooling Degree Days 2 2  
Month to date cooling degree days 16  
Year to date cooling degree days 522  
Growing Degree Days 16 (Base 50)    
Moisture  
Dew Point 45 °F    
Average Humidity 50    
Maximum Humidity 88    
Minimum Humidity 23    
Precipitation  
Precipitation 0.00 in 0.02 in 0.20 in (1991)
Month to date precipitation 0.15  
Year to date precipitation 5.60  
Sea Level Pressure  
Sea Level Pressure 30.38 in    
Wind  
Wind Speed 13 mph (SSE)    
Max Wind Speed 28 mph    
Max Gust Speed 41 mph    
Visibility 10 miles    
Events Rain    
T = Trace of Precipitation, MM = Missing Value Source: NWS Daily Summary

Daily Weather History Graph

Daily Weather History Graph

Search for Another Location

Airport:

Trip Planner

Search our weather history database for the weather conditions in past years. The results will help you decide how hot, cold, wet, or windy it might be!

Date:

Astronomy

Sep. 07, 2013 Rise Set
Actual Time 6:43 AM MDT 7:37 PM MDT
Civil Twilight 6:14 AM MDT 8:06 PM MDT
Nautical Twilight 5:40 AM MDT 8:40 PM MDT
Astronomical Twilight 5:03 AM MDT 9:16 PM MDT
Moon 9:07 AM MDT (9/7) 8:30 PM MDT (9/7)
Length of Visible Light 13h 51m
Length of Day
12h 53m
Waxing Crescent, 5% of the Moon is Illuminated
Sep 7
Waxing Crescent
Sep 12
First Quarter
Sep 19
Full
Sep 26
Last Quarter
Oct 4
New

Hourly Weather History & Observations

Time (MDT) Temp. Dew Point Humidity Pressure Visibility Wind Dir Wind Speed Gust Speed Precip Events Conditions
12:15 AM 62.6 °F 44.6 °F 52% 30.39 in 10.0 mi North 16.1 mph - N/A Rain Light Rain
12:35 AM 62.6 °F 44.6 °F 52% 30.43 in 10.0 mi NW 17.3 mph - N/A Rain Light Rain
12:55 AM 55.4 °F 50.0 °F 82% 30.38 in 10.0 mi NW 27.6 mph - N/A Rain Light Rain
1:15 AM 57.2 °F 50.0 °F 77% 30.38 in 10.0 mi NNW 24.2 mph - N/A   Scattered Clouds
1:35 AM 57.2 °F 48.2 °F 72% 30.38 in 10.0 mi NNW 19.6 mph - N/A   Mostly Cloudy
1:55 AM 57.2 °F 48.2 °F 72% 30.39 in 10.0 mi NNW 20.7 mph - N/A   Mostly Cloudy
2:15 AM 57.2 °F 46.4 °F 67% 30.39 in 10.0 mi NW 18.4 mph - N/A   Scattered Clouds
2:35 AM 55.4 °F 48.2 °F 77% 30.39 in 10.0 mi NW 16.1 mph - N/A   Scattered Clouds
2:55 AM 59.0 °F 46.4 °F 63% 30.39 in 10.0 mi NW 18.4 mph - N/A   Scattered Clouds
3:15 AM 57.2 °F 46.4 °F 67% 30.38 in 10.0 mi NNW 16.1 mph - N/A   Scattered Clouds
3:35 AM 59.0 °F 46.4 °F 63% 30.38 in 10.0 mi NNW 17.3 mph - N/A   Scattered Clouds
3:55 AM 59.0 °F 46.4 °F 63% 30.39 in 10.0 mi NNW 15.0 mph - N/A   Clear
4:15 AM 59.0 °F 46.4 °F 63% 30.39 in 10.0 mi North 12.7 mph - N/A   Clear
4:35 AM 59.0 °F 46.4 °F 63% 30.39 in 10.0 mi North 11.5 mph - N/A   Clear
4:55 AM 59.0 °F 46.4 °F 63% 30.39 in 10.0 mi North 9.2 mph - N/A   Clear
5:15 AM 60.8 °F 44.6 °F 55% 30.40 in 10.0 mi NNE 4.6 mph - N/A   Clear
5:35 AM 60.8 °F 44.6 °F 55% 30.41 in 10.0 mi Calm Calm - N/A   Clear
5:55 AM 60.8 °F 46.4 °F 59% 30.41 in 10.0 mi SW 3.5 mph - N/A   Clear
6:15 AM 60.8 °F 44.6 °F 55% 30.39 in 10.0 mi North 3.5 mph - N/A   Clear
6:35 AM 60.8 °F 44.6 °F 55% 30.40 in 10.0 mi ENE 4.6 mph - N/A   Scattered Clouds
6:55 AM 62.6 °F 44.6 °F 52% 30.40 in 10.0 mi ESE 4.6 mph - N/A   Clear
7:15 AM 62.6 °F 44.6 °F 52% 30.39 in 10.0 mi ESE 6.9 mph - N/A   Clear
7:35 AM 60.8 °F 44.6 °F 55% 30.39 in 10.0 mi SE 6.9 mph - N/A   Mostly Cloudy
7:55 AM 60.8 °F 46.4 °F 59% 30.41 in 10.0 mi SE 8.1 mph - N/A   Scattered Clouds
8:15 AM 60.8 °F 46.4 °F 59% 30.40 in 10.0 mi SE 10.4 mph - N/A   Clear
8:35 AM 60.8 °F 46.4 °F 59% 30.40 in 10.0 mi SE 9.2 mph - N/A   Clear
8:55 AM 62.6 °F 46.4 °F 55% 30.40 in 10.0 mi SSE 9.2 mph - N/A   Clear
9:15 AM 62.6 °F 48.2 °F 59% 30.40 in 10.0 mi SE 8.1 mph - N/A   Clear
9:35 AM 64.4 °F 46.4 °F 52% 30.41 in 10.0 mi SE 10.4 mph - N/A   Clear
9:55 AM 66.2 °F 46.4 °F 49% 30.41 in 10.0 mi SE 8.1 mph - N/A   Clear
10:15 AM 66.2 °F 46.4 °F 49% 30.42 in 10.0 mi SE 10.4 mph - N/A   Clear
10:35 AM 66.2 °F 46.4 °F 49% 30.41 in 10.0 mi SE 12.7 mph 16.1 mph N/A   Clear
10:55 AM 68.0 °F 46.4 °F 46% 30.41 in 10.0 mi SSE 11.5 mph 18.4 mph N/A   Scattered Clouds
11:15 AM 68.0 °F 46.4 °F 46% 30.41 in 10.0 mi SSE 10.4 mph 16.1 mph N/A   Clear
11:35 AM 68.0 °F 46.4 °F 46% 30.41 in 10.0 mi SE 10.4 mph - N/A   Clear
11:55 AM 68.0 °F 46.4 °F 46% 30.41 in 10.0 mi SE 9.2 mph - N/A   Clear
12:15 PM 69.8 °F 44.6 °F 40% 30.41 in 10.0 mi SE 10.4 mph - N/A   Clear
12:35 PM 69.8 °F 44.6 °F 40% 30.41 in 10.0 mi SE 9.2 mph 17.3 mph N/A   Clear
12:55 PM 71.6 °F 44.6 °F 38% 30.40 in 10.0 mi SE 10.4 mph - N/A   Clear
1:15 PM 73.4 °F 42.8 °F 33% 30.40 in 10.0 mi SE 5.8 mph - N/A   Clear
1:35 PM 73.4 °F 41.0 °F 31% 30.39 in 10.0 mi Calm Calm - N/A   Clear
1:55 PM 75.2 °F 41.0 °F 29% 30.38 in 10.0 mi South 9.2 mph - N/A   Clear
2:15 PM 77.0 °F 41.0 °F 28% 30.38 in 10.0 mi South 4.6 mph - N/A   Clear
2:35 PM 77.0 °F 37.4 °F 24% 30.38 in 10.0 mi South 8.1 mph 17.3 mph N/A   Clear
2:55 PM 77.0 °F 39.2 °F 26% 30.37 in 10.0 mi South 5.8 mph - N/A   Clear
3:15 PM 77.0 °F 39.2 °F 26% 30.36 in 10.0 mi South 9.2 mph 20.7 mph N/A   Clear
3:35 PM 78.8 °F 37.4 °F 23% 30.36 in 10.0 mi South 10.4 mph - N/A   Clear
3:55 PM 77.0 °F 37.4 °F 24% 30.35 in 10.0 mi SSE 6.9 mph - N/A   Clear
4:15 PM 77.0 °F 37.4 °F 24% 30.34 in 10.0 mi South 3.5 mph - N/A   Clear
4:35 PM 77.0 °F 37.4 °F 24% 30.34 in 10.0 mi SSE 9.2 mph 16.1 mph N/A   Clear
4:55 PM 77.0 °F 37.4 °F 24% 30.33 in 10.0 mi SE 8.1 mph - N/A   Clear
5:15 PM 77.0 °F 37.4 °F 24% 30.33 in 10.0 mi South 8.1 mph - N/A   Clear
5:35 PM 77.0 °F 37.4 °F 24% 30.32 in 10.0 mi SSE 6.9 mph - N/A   Clear
5:55 PM 77.0 °F 37.4 °F 24% 30.31 in 10.0 mi SE 4.6 mph - N/A   Clear
6:15 PM 77.0 °F 37.4 °F 24% 30.31 in 10.0 mi Calm Calm - N/A   Clear
6:35 PM 75.2 °F 39.2 °F 27% 30.30 in 10.0 mi NW 12.7 mph - N/A   Clear
6:55 PM 73.4 °F 42.8 °F 33% 30.30 in 10.0 mi NW 18.4 mph - N/A   Clear
7:15 PM 71.6 °F 42.8 °F 35% 30.30 in 10.0 mi NNW 17.3 mph - N/A   Clear
7:35 PM 71.6 °F 42.8 °F 35% 30.32 in 10.0 mi NNW 11.5 mph - N/A   Mostly Cloudy
7:55 PM 64.4 °F 48.2 °F 56% 30.35 in 5.0 mi South 18.4 mph 41.4 mph N/A Rain Heavy Rain
8:15 PM 60.8 °F 50.0 °F 68% 30.37 in 7.0 mi SW 15.0 mph 28.8 mph N/A Rain Light Rain
8:35 PM 60.8 °F 46.4 °F 59% 30.36 in 7.0 mi WNW 6.9 mph - N/A Rain Rain
8:55 PM 62.6 °F 46.4 °F 55% 30.35 in 10.0 mi West 9.2 mph - N/A Rain Light Rain
9:15 PM 59.0 °F 50.0 °F 72% 30.36 in 10.0 mi WNW 16.1 mph 20.7 mph N/A   Mostly Cloudy
9:35 PM 59.0 °F 48.2 °F 67% 30.35 in 10.0 mi WNW 11.5 mph - N/A   Scattered Clouds
9:55 PM 62.6 °F 44.6 °F 52% 30.35 in 10.0 mi NW 8.1 mph - N/A   Mostly Cloudy
10:15 PM 62.6 °F 44.6 °F 52% 30.35 in 10.0 mi NNW 3.5 mph - N/A   Mostly Cloudy
10:35 PM 64.4 °F 41.0 °F 42% 30.36 in 10.0 mi SW 6.9 mph - N/A   Overcast
10:55 PM 62.6 °F 46.4 °F 55% 30.36 in 10.0 mi SSE 15.0 mph 21.9 mph N/A   Overcast
11:15 PM 59.0 °F 50.0 °F 72% 30.37 in 10.0 mi SE 20.7 mph - N/A   Light Drizzle
11:35 PM 59.0 °F 51.8 °F 77% 30.36 in 10.0 mi SE 20.7 mph - N/A   Overcast
11:55 PM 57.2 °F 53.6 °F 88% 30.35 in 10.0 mi SE 18.4 mph - N/A   Scattered Clouds